createdAt,value
2024-01-24T00:00:49.148Z,101735.09
2024-01-24T00:03:51.884Z,101724.47
2024-01-24T00:06:54.108Z,101726.59
2024-01-24T00:09:56.566Z,101740.16
2024-01-24T00:12:58.690Z,101745.94
2024-01-24T00:16:01.100Z,101748.87
2024-01-24T00:19:04.028Z,101751.16
2024-01-24T00:22:06.746Z,101754.50
2024-01-24T00:25:09.240Z,101755.37
2024-01-24T00:28:13.120Z,101774.25
2024-01-24T00:31:15.227Z,101767.19
2024-01-24T00:34:17.793Z,101766.44
2024-01-24T00:37:19.942Z,101752.75
2024-01-24T00:40:23.227Z,101747.38
2024-01-24T00:43:27.061Z,101738.53
2024-01-24T00:46:29.492Z,101739.19
2024-01-24T00:49:31.845Z,101738.84
2024-01-24T00:52:34.492Z,101740.44
2024-01-24T00:55:36.572Z,101760.53
2024-01-24T00:58:38.906Z,101754.53
2024-01-24T01:01:41.004Z,101741.97
2024-01-24T01:04:44.604Z,101737.88
2024-01-24T01:07:46.814Z,101741.91
2024-01-24T01:10:49.272Z,101748.41
2024-01-24T01:13:51.409Z,101743.22
2024-01-24T01:16:54.754Z,101732.00
2024-01-24T01:19:57.276Z,101714.63
2024-01-24T01:22:59.628Z,101707.03
2024-01-24T01:26:01.808Z,101699.97
2024-01-24T01:29:04.803Z,101685.34
2024-01-24T01:32:07.252Z,101681.00
2024-01-24T01:35:10.651Z,101685.69
2024-01-24T01:38:14.506Z,101683.72
2024-01-24T01:41:16.989Z,101695.25
2024-01-24T01:44:19.097Z,101678.59
2024-01-24T01:47:22.608Z,101662.72
2024-01-24T01:50:24.945Z,101660.41
2024-01-24T01:53:27.814Z,101658.13
2024-01-24T01:56:30.190Z,101664.03
2024-01-24T01:59:33.049Z,101669.66
2024-01-24T02:02:35.577Z,101661.44
2024-01-24T02:05:39.273Z,101659.91
2024-01-24T02:08:44.187Z,101667.41
2024-01-24T02:11:46.321Z,101653.84
2024-01-24T02:14:49.007Z,101640.75
2024-01-24T02:17:51.242Z,101634.75
2024-01-24T02:20:53.708Z,101636.87
2024-01-24T02:23:57.766Z,101642.97
2024-01-24T02:27:00.142Z,101633.75
2024-01-24T02:30:02.309Z,101635.38
2024-01-24T02:33:04.931Z,101619.56
2024-01-24T02:36:07.269Z,101627.66
2024-01-24T02:39:09.748Z,101627.00
2024-01-24T02:42:11.931Z,101635.06
2024-01-24T02:45:14.658Z,101632.84
2024-01-24T02:48:16.966Z,101631.50
2024-01-24T02:51:26.938Z,101627.47
2024-01-24T02:54:29.346Z,101628.31
2024-01-24T02:57:31.800Z,101627.47
2024-01-24T03:00:34.038Z,101614.81
2024-01-24T03:03:39.051Z,101609.72
2024-01-24T03:06:41.697Z,101600.25
2024-01-24T03:09:44.216Z,101586.13
2024-01-24T03:12:46.345Z,101579.97
2024-01-24T03:15:48.765Z,101564.00
2024-01-24T03:18:52.824Z,101563.75
2024-01-24T03:21:55.497Z,101558.31
2024-01-24T03:24:57.704Z,101556.66
2024-01-24T03:28:00.206Z,101549.09
2024-01-24T03:31:03.466Z,101549.00
2024-01-24T03:34:06.425Z,101543.19
2024-01-24T03:37:08.700Z,101538.25
2024-01-24T03:40:11.316Z,101531.31
2024-01-24T03:43:13.697Z,101520.78
2024-01-24T03:46:19.095Z,101517.66
2024-01-24T03:49:22.909Z,101520.78
2024-01-24T03:52:25.436Z,101529.13
2024-01-24T03:55:27.562Z,101527.06
2024-01-24T03:58:30.001Z,101534.13
2024-01-24T04:01:32.416Z,101524.91
2024-01-24T04:04:35.057Z,101520.31
2024-01-24T04:07:37.292Z,101528.22
2024-01-24T04:10:39.726Z,101516.19
2024-01-24T04:13:44.170Z,101520.47
2024-01-24T04:16:46.690Z,101518.16
2024-01-24T04:19:48.957Z,101514.94
2024-01-24T04:22:51.867Z,101519.97
2024-01-24T04:25:54.054Z,101520.66
2024-01-24T04:28:56.412Z,101517.09
2024-01-24T04:31:59.130Z,101520.06
2024-01-24T04:35:01.581Z,101519.31
2024-01-24T04:38:05.024Z,101518.50
2024-01-24T04:41:09.720Z,101522.59
2024-01-24T04:44:11.814Z,101528.03
2024-01-24T04:47:16.771Z,101516.19
2024-01-24T04:50:19.893Z,101511.37
2024-01-24T04:53:22.414Z,101509.75
2024-01-24T04:56:24.526Z,101513.69
2024-01-24T04:59:26.860Z,101518.94
2024-01-24T05:02:28.911Z,101510.12
2024-01-24T05:05:31.442Z,101501.78
2024-01-24T05:08:33.585Z,101493.44
2024-01-24T05:11:35.946Z,101489.72
2024-01-24T05:14:38.088Z,101488.91
2024-01-24T05:17:40.785Z,101497.87
2024-01-24T05:20:43.182Z,101493.50
2024-01-24T05:23:46.983Z,101497.28
2024-01-24T05:26:49.783Z,101488.63
2024-01-24T05:29:52.177Z,101482.97
2024-01-24T05:32:56.875Z,101486.75
2024-01-24T05:35:59.291Z,101477.75
2024-01-24T05:39:01.407Z,101478.84
2024-01-24T05:42:03.915Z,101482.62
2024-01-24T05:45:06.730Z,101488.06
2024-01-24T05:48:09.421Z,101485.34
2024-01-24T05:51:11.947Z,101474.53
2024-01-24T05:54:14.449Z,101466.44
2024-01-24T05:57:16.703Z,101462.16
2024-01-24T06:00:20.417Z,101445.06
2024-01-24T06:03:22.930Z,101450.56
2024-01-24T06:06:25.184Z,101452.25
2024-01-24T06:09:28.782Z,101452.81
2024-01-24T06:12:30.911Z,101452.03
2024-01-24T06:15:33.396Z,101463.69
2024-01-24T06:18:35.671Z,101459.16
2024-01-24T06:21:38.613Z,101458.34
2024-01-24T06:24:41.124Z,101457.22
2024-01-24T06:27:43.636Z,101459.38
2024-01-24T06:30:47.269Z,101456.91
2024-01-24T06:33:49.952Z,101442.12
2024-01-24T06:36:52.139Z,101433.19
2024-01-24T06:39:54.569Z,101426.09
2024-01-24T06:42:56.929Z,101417.44
2024-01-24T06:45:59.469Z,101410.88
2024-01-24T06:49:01.978Z,101402.09
2024-01-24T06:52:04.540Z,101388.50
2024-01-24T06:55:07.026Z,101384.94
2024-01-24T06:58:10.400Z,101387.62
2024-01-24T07:01:13.102Z,101383.56
2024-01-24T07:04:15.760Z,101387.94
2024-01-24T07:07:18.047Z,101373.78
2024-01-24T07:10:20.528Z,101373.28
2024-01-24T07:13:22.704Z,101368.34
2024-01-24T07:16:25.086Z,101368.34
2024-01-24T07:19:27.434Z,101361.25
2024-01-24T07:22:29.880Z,101347.94
2024-01-24T07:25:32.260Z,101351.72
2024-01-24T07:28:36.240Z,101354.25
2024-01-24T07:31:39.284Z,101349.38
2024-01-24T07:34:42.892Z,101338.50
2024-01-24T07:37:45.597Z,101342.59
2024-01-24T07:40:48.123Z,101330.59
2024-01-24T07:43:50.432Z,101333.88
2024-01-24T07:46:53.147Z,101339.09
2024-01-24T07:49:55.608Z,101326.09
2024-01-24T07:52:58.415Z,101337.25
2024-01-24T07:56:07.317Z,101321.25
2024-01-24T07:59:18.574Z,101322.91
2024-01-24T08:02:21.141Z,101318.59
2024-01-24T08:05:24.928Z,101318.63
2024-01-24T08:08:27.430Z,101317.09
2024-01-24T08:11:30.031Z,101311.69
2024-01-24T08:14:32.231Z,101305.19
2024-01-24T08:17:35.852Z,101331.28
2024-01-24T08:20:38.678Z,101332.94
2024-01-24T08:23:47.093Z,101312.81
2024-01-24T08:26:56.581Z,101315.53
2024-01-24T08:30:02.004Z,101304.06
2024-01-24T08:33:04.448Z,101310.34
2024-01-24T08:36:06.909Z,101314.97
2024-01-24T08:39:09.337Z,101303.00
2024-01-24T08:42:12.254Z,101300.84
2024-01-24T08:45:14.470Z,101277.50
2024-01-24T08:48:18.928Z,101274.78
2024-01-24T08:51:23.385Z,101272.09
2024-01-24T08:54:25.843Z,101280.81
2024-01-24T08:57:29.140Z,101279.28
2024-01-24T09:00:31.768Z,101282.59
2024-01-24T09:03:34.079Z,101259.19
2024-01-24T09:06:36.530Z,101253.53
2024-01-24T09:09:40.967Z,101267.69
2024-01-24T09:12:45.705Z,101258.19
2024-01-24T09:15:48.876Z,101250.06
2024-01-24T09:18:52.698Z,101229.63
2024-01-24T09:21:55.349Z,101231.28
2024-01-24T09:24:57.926Z,101233.72
2024-01-24T09:28:00.257Z,101221.72
2024-01-24T09:31:02.968Z,101202.97
2024-01-24T09:34:05.545Z,101203.75
2024-01-24T09:37:08.147Z,101208.09
2024-01-24T09:40:11.135Z,101198.84
2024-01-24T09:43:15.038Z,101214.62
2024-01-24T09:46:20.762Z,101199.87
2024-01-24T09:49:23.374Z,101178.66
2024-01-24T09:52:28.054Z,101177.22
2024-01-24T09:55:33.152Z,101164.94
2024-01-24T09:58:35.367Z,101175.84
2024-01-24T10:01:40.898Z,101149.16
2024-01-24T10:04:44.958Z,101144.84
2024-01-24T10:07:47.860Z,101118.69
2024-01-24T10:10:50.456Z,101104.00
2024-01-24T10:13:56.832Z,101093.91
2024-01-24T10:16:59.372Z,101084.72
2024-01-24T10:20:02.135Z,101082.81
2024-01-24T10:23:05.373Z,101053.69
2024-01-24T10:26:09.118Z,101044.19
2024-01-24T10:29:15.108Z,101033.03
2024-01-24T10:32:17.311Z,101030.56
2024-01-24T10:35:19.983Z,101027.31
2024-01-24T10:38:25.573Z,101035.53
2024-01-24T10:41:35.121Z,101034.16
2024-01-24T10:44:38.768Z,101040.69
2024-01-24T10:47:42.355Z,101027.88
2024-01-24T10:50:45.067Z,101023.00
2024-01-24T10:53:48.528Z,101016.44
2024-01-24T10:56:51.825Z,101012.66
2024-01-24T10:59:55.473Z,101003.94
2024-01-24T11:02:58.930Z,100970.16
2024-01-24T11:06:06.629Z,100967.97
2024-01-24T11:09:12.547Z,100948.87
2024-01-24T11:12:15.013Z,100946.16
2024-01-24T11:15:17.319Z,100929.50
2024-01-24T11:18:24.008Z,100909.59
2024-01-24T11:21:29.139Z,100921.06
2024-01-24T11:24:53.637Z,100913.69
2024-01-24T11:27:58.912Z,100905.19
2024-01-24T11:31:01.832Z,100909.03
2024-01-24T11:34:08.121Z,100903.00
2024-01-24T11:37:16.500Z,100898.63
2024-01-24T11:40:18.975Z,100860.41
2024-01-24T11:43:28.901Z,100836.97
2024-01-24T11:46:33.050Z,100832.31
2024-01-24T11:49:35.606Z,100840.19
2024-01-24T11:52:37.970Z,100863.91
2024-01-24T11:55:40.410Z,100885.97
2024-01-24T11:58:42.731Z,100873.47
2024-01-24T12:01:45.464Z,100892.25
2024-01-24T12:04:54.556Z,100887.63
2024-01-24T12:07:56.845Z,100903.16
2024-01-24T12:11:00.081Z,100887.87
2024-01-24T12:14:03.180Z,100877.22
2024-01-24T12:17:06.364Z,100870.63
2024-01-24T12:20:10.652Z,100884.81
2024-01-24T12:23:14.439Z,100895.16
2024-01-24T12:26:16.780Z,100890.22
2024-01-24T12:29:19.907Z,100881.47
2024-01-24T12:32:22.626Z,100879.25
2024-01-24T12:35:25.978Z,100868.31
2024-01-24T12:38:28.082Z,100868.38
2024-01-24T12:41:31.881Z,100863.41
2024-01-24T12:44:35.852Z,100854.19
2024-01-24T12:47:39.109Z,100844.88
2024-01-24T12:50:41.481Z,100837.22
2024-01-24T12:53:44.313Z,100825.12
2024-01-24T12:56:48.522Z,100815.28
2024-01-24T12:59:51.511Z,100803.53
2024-01-24T13:02:54.274Z,100801.12
2024-01-24T13:05:57.039Z,100786.41
2024-01-24T13:08:59.697Z,100795.16
2024-01-24T13:12:02.382Z,100795.41
2024-01-24T13:15:05.988Z,100799.47
2024-01-24T13:18:09.389Z,100806.56
2024-01-24T13:21:11.906Z,100814.22
2024-01-24T13:24:14.412Z,100819.19
2024-01-24T13:27:16.666Z,100808.38
2024-01-24T13:30:19.224Z,100797.44
2024-01-24T13:33:21.561Z,100792.00
2024-01-24T13:36:24.500Z,100783.25
2024-01-24T13:39:26.806Z,100758.66
2024-01-24T13:42:29.390Z,100757.09
2024-01-24T13:45:32.044Z,100752.47
2024-01-24T13:48:34.700Z,100754.72
2024-01-24T13:51:42.644Z,100760.72
2024-01-24T13:54:46.808Z,100753.06
2024-01-24T13:57:49.712Z,100749.78
2024-01-24T14:00:52.745Z,100747.81
2024-01-24T14:03:55.609Z,100724.87
2024-01-24T14:06:58.032Z,100704.13
2024-01-24T14:10:00.588Z,100713.06
2024-01-24T14:13:03.411Z,100690.12
2024-01-24T14:16:06.942Z,100730.22
2024-01-24T14:19:09.360Z,100694.97
2024-01-24T14:22:11.896Z,100698.16
2024-01-24T14:25:14.166Z,100672.50
2024-01-24T14:28:16.875Z,100706.09
2024-01-24T14:31:19.090Z,100690.34
2024-01-24T14:34:21.620Z,100698.72
2024-01-24T14:37:28.983Z,100695.22
2024-01-24T14:40:33.493Z,100675.09
2024-01-24T14:43:35.678Z,100675.41
2024-01-24T14:46:38.092Z,100652.97
2024-01-24T14:49:40.282Z,100660.75
2024-01-24T14:52:42.794Z,100677.81
2024-01-24T14:55:45.136Z,100665.00
2024-01-24T14:58:47.505Z,100652.00
2024-01-24T15:01:49.933Z,100663.00
2024-01-24T15:04:52.567Z,100667.91
2024-01-24T15:07:54.871Z,100662.44
2024-01-24T15:10:57.407Z,100625.41
2024-01-24T15:13:59.700Z,100634.31
2024-01-24T15:17:02.238Z,100608.38
2024-01-24T15:20:05.268Z,100624.75
2024-01-24T15:23:09.027Z,100624.16
2024-01-24T15:26:11.373Z,100609.38
2024-01-24T15:35:49.196Z,100618.62
2024-01-24T15:38:55.868Z,100624.63
2024-01-24T15:42:01.438Z,100608.75
2024-01-24T15:45:04.407Z,100614.22
2024-01-24T15:48:06.931Z,100616.87
2024-01-24T15:51:09.562Z,100619.03
2024-01-24T15:54:12.045Z,100614.09
2024-01-24T15:57:14.497Z,100615.75
2024-01-24T16:00:16.896Z,100622.84
2024-01-24T16:03:20.851Z,100637.81
2024-01-24T16:06:23.476Z,100630.97
2024-01-24T16:09:26.412Z,100633.19
2024-01-24T16:12:28.667Z,100627.72
2024-01-24T16:15:31.177Z,100638.62
2024-01-24T16:18:34.330Z,100635.59
2024-01-24T16:21:43.114Z,100613.78
2024-01-24T16:24:45.831Z,100615.16
2024-01-24T16:27:48.297Z,100618.41
2024-01-24T16:30:50.577Z,100620.06
2024-01-24T16:33:53.093Z,100616.19
2024-01-24T16:36:55.307Z,100645.56
2024-01-24T16:39:57.836Z,100629.75
2024-01-24T16:43:00.053Z,100601.12
2024-01-24T16:46:03.686Z,100608.44
2024-01-24T16:49:06.005Z,100617.13
2024-01-24T16:52:08.589Z,100618.66
2024-01-24T16:55:12.300Z,100626.91
2024-01-24T16:58:15.704Z,100609.19
2024-01-24T17:01:17.924Z,100622.03
2024-01-24T17:04:20.490Z,100643.28
2024-01-24T17:07:23.220Z,100656.88
2024-01-24T17:10:25.667Z,100661.09
2024-01-24T17:13:27.723Z,100653.41
2024-01-24T17:16:30.310Z,100648.66
2024-01-24T17:19:32.581Z,100647.69
2024-01-24T17:22:35.193Z,100641.06
2024-01-24T17:25:37.270Z,100638.84
2024-01-24T17:28:39.710Z,100636.28
2024-01-24T17:31:41.819Z,100642.47
2024-01-24T17:34:44.495Z,100680.06
2024-01-24T17:37:47.339Z,100672.19
2024-01-24T17:40:50.118Z,100646.25
2024-01-24T17:43:52.506Z,100671.37
2024-01-24T17:46:55.083Z,100676.31
2024-01-24T17:49:57.316Z,100665.47
2024-01-24T17:52:59.940Z,100670.97
2024-01-24T17:56:02.036Z,100665.06
2024-01-24T17:59:04.683Z,100664.37
2024-01-24T18:02:07.276Z,100664.47
2024-01-24T18:05:09.970Z,100656.09
2024-01-24T18:08:13.040Z,100668.13
2024-01-24T18:11:15.854Z,100673.16
2024-01-24T18:14:17.978Z,100671.63
2024-01-24T18:17:20.497Z,100679.84
2024-01-24T18:20:22.701Z,100682.31
2024-01-24T18:23:25.152Z,100684.22
2024-01-24T18:26:27.296Z,100689.72
2024-01-24T18:29:29.694Z,100701.78
2024-01-24T18:32:33.244Z,100703.12
2024-01-24T18:35:35.784Z,100674.25
2024-01-24T18:38:41.011Z,100667.41
2024-01-24T18:41:43.534Z,100659.81
2024-01-24T18:44:45.845Z,100667.41
2024-01-24T18:47:48.595Z,100670.13
2024-01-24T18:50:51.162Z,100657.50
2024-01-24T18:53:53.584Z,100660.94
2024-01-24T18:56:56.019Z,100662.09
2024-01-24T18:59:58.760Z,100664.91
2024-01-24T19:03:01.105Z,100659.94
2024-01-24T19:06:06.619Z,100653.22
2024-01-24T19:09:09.388Z,100635.28
2024-01-24T19:12:12.016Z,100646.00
2024-01-24T19:15:14.138Z,100636.47
2024-01-24T19:18:20.468Z,100628.50
2024-01-24T19:21:25.144Z,100617.94
2024-01-24T19:24:27.677Z,100628.34
2024-01-24T19:27:30.042Z,100623.25
2024-01-24T19:30:32.579Z,100624.66
2024-01-24T19:33:34.929Z,100639.66
2024-01-24T19:36:37.980Z,100642.69
2024-01-24T19:39:40.139Z,100645.50
2024-01-24T19:42:42.669Z,100652.34
2024-01-24T19:45:44.919Z,100664.66
2024-01-24T19:48:47.428Z,100657.56
2024-01-24T19:51:51.903Z,100661.38
2024-01-24T19:54:55.608Z,100668.47
2024-01-24T19:57:59.088Z,100674.25
2024-01-24T20:01:05.433Z,100681.81
2024-01-24T20:04:08.041Z,100703.66
2024-01-24T20:07:10.349Z,100706.75
2024-01-24T20:10:13.292Z,100720.94
2024-01-24T20:13:15.904Z,100727.81
2024-01-24T20:16:19.023Z,100724.56
2024-01-24T20:19:21.207Z,100721.00
2024-01-24T20:22:23.588Z,100726.41
2024-01-24T20:25:25.840Z,100733.78
2024-01-24T20:28:28.256Z,100721.78
2024-01-24T20:31:30.429Z,100730.19
2024-01-24T20:34:33.276Z,100728.84
2024-01-24T20:37:35.492Z,100711.69
2024-01-24T20:40:37.899Z,100706.22
2024-01-24T20:43:40.692Z,100701.78
2024-01-24T20:46:43.345Z,100703.44
2024-01-24T20:49:46.051Z,100704.53
2024-01-24T20:52:50.730Z,100689.22
2024-01-24T20:55:53.445Z,100689.78
2024-01-24T20:58:55.857Z,100688.66
2024-01-24T21:02:00.328Z,100687.06
2024-01-24T21:05:03.831Z,100683.78
2024-01-24T21:08:06.884Z,100684.09
2024-01-24T21:11:11.697Z,100689.25
2024-01-24T21:14:13.815Z,100690.31
2024-01-24T21:17:16.389Z,100702.88
2024-01-24T21:20:18.818Z,100700.66
2024-01-24T21:23:21.390Z,100692.41
2024-01-24T21:26:23.469Z,100695.66
2024-01-24T21:29:25.897Z,100708.78
2024-01-24T21:32:28.203Z,100718.66
2024-01-24T21:35:30.713Z,100717.03
2024-01-24T21:38:32.994Z,100717.09
2024-01-24T21:41:35.840Z,100715.19
2024-01-24T21:44:38.008Z,100699.59
2024-01-24T21:47:42.119Z,100709.88
2024-01-24T21:50:44.960Z,100712.28
2024-01-24T21:53:47.921Z,100717.94
2024-01-24T21:56:50.770Z,100705.78
2024-01-24T21:59:53.302Z,100707.56
2024-01-24T22:02:55.427Z,100702.81
2024-01-24T22:05:58.069Z,100704.87
2024-01-24T22:09:00.486Z,100691.66
2024-01-24T22:12:02.922Z,100698.94
2024-01-24T22:15:06.108Z,100699.59
2024-01-24T22:18:09.378Z,100698.44
2024-01-24T22:21:12.764Z,100712.84
2024-01-24T22:24:15.224Z,100713.28
2024-01-24T22:27:17.396Z,100718.81
2024-01-24T22:30:20.106Z,100713.81
2024-01-24T22:33:22.988Z,100704.97
2024-01-24T22:36:25.509Z,100700.47
2024-01-24T22:39:27.713Z,100704.53
2024-01-24T22:42:30.311Z,100710.81
2024-01-24T22:45:32.468Z,100707.50
2024-01-24T22:48:35.128Z,100694.91
2024-01-24T22:51:37.801Z,100708.50
2024-01-24T22:54:40.296Z,100710.06
2024-01-24T22:57:48.074Z,100696.81
2024-01-24T23:00:50.580Z,100688.03
2024-01-24T23:03:53.378Z,100675.44
2024-01-24T23:06:55.810Z,100686.59
2024-01-24T23:09:58.286Z,100673.94
2024-01-24T23:13:00.927Z,100675.25
2024-01-24T23:16:03.097Z,100665.94
2024-01-24T23:19:05.629Z,100671.22
2024-01-24T23:22:08.039Z,100681.56
2024-01-24T23:25:10.548Z,100674.28
2024-01-24T23:28:12.699Z,100663.75
2024-01-24T23:31:15.342Z,100654.03
2024-01-24T23:34:17.628Z,100655.84
2024-01-24T23:37:20.425Z,100634.34
2024-01-24T23:40:22.889Z,100644.19
2024-01-24T23:43:25.721Z,100622.97
2024-01-24T23:46:29.151Z,100635.12
2024-01-24T23:49:31.927Z,100648.56
2024-01-24T23:52:34.280Z,100659.91
2024-01-24T23:55:37.787Z,100636.25
2024-01-24T23:58:39.878Z,100624.88
